Time;durP1;ratioP1;P1;durP2;ratioP2;P2;SDS_P1;SDS_P2;PMS_P1;PMS_P2;Temp;Humidity;BMP_temperature;BMP_pressure;BME280_temperature;BME280_humidity;BME280_pressure;Samples;Min_cycle;Max_cycle;Signal;HPM_P1;HPM_P2
2022/02/25 00:00:18;;;;;;;0.95;0.43;;;5.50;83.10;;;;;;4985475;28;20169;-68
2022/02/25 00:02:48;;;;;;;0.40;0.20;;;5.60;83.20;;;;;;4988438;28;20052;-66
2022/02/25 00:05:16;;;;;;;1.27;0.45;;;5.50;83.10;;;;;;4991685;28;20064;-68
2022/02/25 00:07:51;;;;;;;0.70;0.38;;;5.50;83.00;;;;;;4991445;28;20484;-69
2022/02/25 00:10:18;;;;;;;1.58;0.30;;;5.60;83.00;;;;;;4991777;28;20046;-68
2022/02/25 00:12:46;;;;;;;1.33;0.55;;;5.60;82.90;;;;;;4992958;28;20046;-69
2022/02/25 00:15:15;;;;;;;1.33;0.57;;;5.70;82.90;;;;;;4992729;28;20056;-67
2022/02/25 00:17:44;;;;;;;0.90;0.40;;;5.60;82.70;;;;;;4987954;28;20046;-69
2022/02/25 00:20:13;;;;;;;1.13;0.40;;;5.60;82.70;;;;;;4988422;28;20120;-68
2022/02/25 00:22:41;;;;;;;2.47;0.50;;;5.60;82.60;;;;;;4989305;28;20046;-68
2022/02/25 00:25:11;;;;;;;1.05;0.60;;;5.60;82.40;;;;;;4990591;28;20053;-67
2022/02/25 00:27:39;;;;;;;1.40;0.55;;;5.60;82.20;;;;;;4989059;28;20404;-68
2022/02/25 00:30:11;;;;;;;0.50;0.30;;;5.50;82.10;;;;;;4990791;28;20117;-68
2022/02/25 00:32:39;;;;;;;0.80;0.30;;;5.60;81.40;;;;;;4987444;28;20046;-67
2022/02/25 00:35:09;;;;;;;0.82;0.50;;;5.50;81.20;;;;;;4987613;28;20054;-67
2022/02/25 00:37:37;;;;;;;1.33;0.70;;;5.50;81.20;;;;;;4987677;28;20117;-67
2022/02/25 00:40:11;;;;;;;1.35;0.82;;;5.50;80.90;;;;;;4987865;28;20105;-67
2022/02/25 00:42:43;;;;;;;0.95;0.40;;;5.50;81.00;;;;;;4987143;28;20069;-68
2022/02/25 00:45:16;;;;;;;0.93;0.40;;;5.40;80.60;;;;;;4991413;28;20041;-68
2022/02/25 00:47:45;;;;;;;1.05;0.30;;;5.40;80.20;;;;;;4978064;28;20065;-68
2022/02/25 00:50:16;;;;;;;1.05;0.30;;;5.40;80.20;;;;;;4990219;28;20050;-68
2022/02/25 00:52:46;;;;;;;1.05;0.40;;;5.30;80.20;;;;;;4988601;28;20053;-68
2022/02/25 00:55:17;;;;;;;1.63;0.43;;;5.30;80.10;;;;;;4987281;28;20053;-69
2022/02/25 00:57:45;;;;;;;1.55;0.45;;;5.20;80.10;;;;;;4987950;28;20053;-67
2022/02/25 01:00:15;;;;;;;2.00;0.65;;;5.20;80.30;;;;;;4968461;28;20060;-67
2022/02/25 01:02:43;;;;;;;0.67;0.30;;;5.20;80.20;;;;;;4989080;28;20124;-67
2022/02/25 01:05:13;;;;;;;0.25;0.20;;;5.20;80.20;;;;;;4988031;28;20492;-69
2022/02/25 01:07:42;;;;;;;1.58;0.30;;;5.20;80.50;;;;;;4987822;28;20826;-68
2022/02/25 01:10:14;;;;;;;1.10;0.50;;;5.20;80.70;;;;;;4986821;28;20068;-68
2022/02/25 01:12:48;;;;;;;1.08;0.38;;;5.20;80.80;;;;;;4986950;28;20046;-67
2022/02/25 01:15:17;;;;;;;1.00;0.60;;;5.20;81.00;;;;;;4989075;28;20072;-68
2022/02/25 01:17:44;;;;;;;0.40;0.25;;;5.20;81.20;;;;;;4988718;28;20045;-67
2022/02/25 01:20:15;;;;;;;0.95;0.35;;;5.20;81.30;;;;;;4986039;28;21523;-69
2022/02/25 01:22:44;;;;;;;0.47;0.30;;;5.10;81.40;;;;;;4975832;28;20046;-68
2022/02/25 01:25:11;;;;;;;1.15;0.40;;;5.20;81.50;;;;;;4975104;28;20508;-68
2022/02/25 01:27:42;;;;;;;2.85;0.60;;;5.10;81.50;;;;;;4972131;28;20585;-69
2022/02/25 01:30:14;;;;;;;2.92;0.40;;;5.10;81.50;;;;;;4979044;28;20046;-68
2022/02/25 01:32:41;;;;;;;0.35;0.28;;;5.10;81.60;;;;;;4977973;28;20512;-67
2022/02/25 01:35:12;;;;;;;0.90;0.30;;;5.00;81.60;;;;;;4979515;28;20062;-67
2022/02/25 01:37:40;;;;;;;0.75;0.30;;;5.00;81.50;;;;;;4982723;28;20052;-68
2022/02/25 01:40:08;;;;;;;0.25;0.25;;;5.00;81.50;;;;;;4983086;28;20050;-68
2022/02/25 01:42:45;;;;;;;0.57;0.30;;;5.00;81.40;;;;;;4988428;28;20538;-67
2022/02/25 01:45:19;;;;;;;0.50;0.32;;;4.90;81.30;;;;;;4986210;28;20046;-67
2022/02/25 01:47:49;;;;;;;0.95;0.40;;;4.90;81.30;;;;;;4987849;28;20169;-68
2022/02/25 01:50:17;;;;;;;0.80;0.30;;;4.90;81.20;;;;;;4986723;28;20046;-68
2022/02/25 01:53:00;;;;;;;1.63;0.35;;;4.80;81.20;;;;;;4985322;28;20514;-68
2022/02/25 01:55:34;;;;;;;0.60;0.30;;;4.80;81.30;;;;;;4988707;28;20041;-67
2022/02/25 01:58:03;;;;;;;0.77;0.38;;;4.80;81.10;;;;;;4987612;28;20046;-68
2022/02/25 02:00:37;;;;;;;0.70;0.70;;;4.70;81.20;;;;;;4977561;28;20046;-69
2022/02/25 02:03:07;;;;;;;1.33;0.45;;;4.70;81.00;;;;;;4986123;28;20651;-67
2022/02/25 02:05:36;;;;;;;1.35;0.30;;;4.70;81.00;;;;;;4972551;28;20050;-68
2022/02/25 02:08:03;;;;;;;1.35;0.63;;;4.70;81.10;;;;;;4987638;28;20046;-69
2022/02/25 02:10:31;;;;;;;1.40;0.80;;;4.60;81.20;;;;;;4987055;28;20046;-68
2022/02/25 02:13:04;;;;;;;0.80;0.45;;;4.60;81.20;;;;;;4987900;28;20056;-70
2022/02/25 02:15:33;;;;;;;0.80;0.40;;;4.60;81.30;;;;;;4989719;28;20120;-68
2022/02/25 02:18:04;;;;;;;0.65;0.40;;;4.50;81.30;;;;;;4991715;28;20054;-68
2022/02/25 02:20:31;;;;;;;1.00;0.40;;;4.50;81.30;;;;;;4988417;28;20046;-68
2022/02/25 02:23:00;;;;;;;0.90;0.43;;;4.50;81.40;;;;;;4987840;28;20045;-69
2022/02/25 02:25:28;;;;;;;1.30;0.50;;;4.50;81.40;;;;;;4985167;28;20085;-68
2022/02/25 02:30:39;;;;;;;1.17;0.68;;;4.50;81.60;;;;;;4988378;28;20045;-68
2022/02/25 02:33:07;;;;;;;0.30;0.28;;;4.50;81.90;;;;;;4984538;28;20547;-70
2022/02/25 02:35:34;;;;;;;1.20;0.70;;;4.50;81.90;;;;;;4986005;28;20133;-68
2022/02/25 02:38:04;;;;;;;0.85;0.63;;;4.60;81.90;;;;;;4984072;28;20153;-68
2022/02/25 02:40:34;;;;;;;0.75;0.65;;;4.60;82.00;;;;;;4985050;28;20061;-67
2022/02/25 02:43:01;;;;;;;0.73;0.40;;;4.50;82.00;;;;;;4984422;28;20042;-68
2022/02/25 02:45:34;;;;;;;1.23;0.43;;;4.50;82.00;;;;;;4961151;28;20774;-69
2022/02/25 02:48:04;;;;;;;1.90;0.45;;;4.50;82.00;;;;;;4981534;28;20121;-68
2022/02/25 02:50:32;;;;;;;0.77;0.40;;;4.50;81.90;;;;;;4969839;28;20160;-67
2022/02/25 02:53:00;;;;;;;1.00;0.70;;;4.40;81.90;;;;;;4991460;28;20056;-67
2022/02/25 02:55:32;;;;;;;2.08;0.80;;;4.40;81.90;;;;;;4993571;28;20130;-67
2022/02/25 02:58:00;;;;;;;2.20;0.80;;;4.40;81.80;;;;;;4991774;28;20104;-67
2022/02/25 03:00:29;;;;;;;1.73;0.50;;;4.40;81.90;;;;;;4985659;28;20539;-67
2022/02/25 03:02:57;;;;;;;1.20;0.60;;;4.30;81.90;;;;;;4989428;28;20941;-68
2022/02/25 03:05:25;;;;;;;0.90;0.52;;;4.30;81.90;;;;;;4988898;28;20136;-68
2022/02/25 03:07:52;;;;;;;1.60;0.70;;;4.30;81.90;;;;;;4967867;28;20054;-68
2022/02/25 03:10:19;;;;;;;0.90;0.50;;;4.30;81.90;;;;;;4966479;28;20051;-67
2022/02/25 03:12:48;;;;;;;1.85;0.60;;;4.20;82.00;;;;;;4983831;28;20046;-67
2022/02/25 03:15:18;;;;;;;0.63;0.40;;;4.20;81.90;;;;;;4985952;28;20182;-67
2022/02/25 03:17:49;;;;;;;1.15;0.50;;;4.20;82.00;;;;;;4983849;28;20439;-68
2022/02/25 03:20:18;;;;;;;2.13;1.00;;;4.20;81.90;;;;;;4983812;28;20892;-66
2022/02/25 03:22:52;;;;;;;1.90;0.65;;;4.20;82.10;;;;;;4983128;28;20042;-67
2022/02/25 03:25:26;;;;;;;2.00;0.63;;;4.20;82.10;;;;;;4982201;28;21398;-67
2022/02/25 03:27:57;;;;;;;1.85;0.70;;;4.10;82.10;;;;;;4984306;28;20108;-68
2022/02/25 03:30:24;;;;;;;1.35;0.50;;;4.20;82.10;;;;;;4985842;28;20050;-69
2022/02/25 03:32:52;;;;;;;1.17;0.50;;;4.20;82.00;;;;;;4983357;28;20060;-67
2022/02/25 03:35:25;;;;;;;0.45;0.30;;;4.10;82.00;;;;;;4983458;28;20065;-69
2022/02/25 03:37:53;;;;;;;2.97;0.70;;;4.10;81.90;;;;;;4984190;28;20082;-67
2022/02/25 03:40:20;;;;;;;1.48;0.70;;;4.10;82.00;;;;;;4982844;28;20612;-67
2022/02/25 03:42:48;;;;;;;0.77;0.40;;;4.00;82.10;;;;;;4985055;28;20046;-67
2022/02/25 03:45:16;;;;;;;1.13;0.50;;;4.00;82.00;;;;;;4984119;28;20042;-67
2022/02/25 03:47:44;;;;;;;0.57;0.40;;;4.00;82.10;;;;;;4984885;28;20524;-66
2022/02/25 03:50:12;;;;;;;1.52;0.50;;;4.00;82.10;;;;;;4987698;28;20049;-68
2022/02/25 03:52:39;;;;;;;2.95;0.80;;;4.00;82.10;;;;;;4985351;28;20786;-67
2022/02/25 03:55:08;;;;;;;3.00;0.70;;;4.00;82.00;;;;;;4988916;28;20624;-69
2022/02/25 03:57:36;;;;;;;2.20;0.73;;;4.00;81.90;;;;;;4988334;28;20049;-69
2022/02/25 04:00:06;;;;;;;2.63;0.70;;;4.00;82.10;;;;;;4986598;28;20046;-68
2022/02/25 04:02:43;;;;;;;1.67;0.50;;;3.90;82.00;;;;;;4985649;28;20042;-68
2022/02/25 04:05:14;;;;;;;1.65;0.63;;;3.90;82.00;;;;;;4987678;28;20042;-68
2022/02/25 04:07:44;;;;;;;1.20;0.40;;;3.90;82.10;;;;;;4984356;28;20046;-68
2022/02/25 04:10:12;;;;;;;2.22;0.60;;;3.90;82.00;;;;;;4984914;28;20184;-68
2022/02/25 04:12:39;;;;;;;4.18;0.65;;;3.90;82.00;;;;;;4984656;28;20061;-69
2022/02/25 04:15:08;;;;;;;1.90;1.00;;;3.80;82.00;;;;;;4983419;28;20046;-68
2022/02/25 04:17:39;;;;;;;4.03;1.23;;;3.80;82.00;;;;;;4986568;28;20117;-67
2022/02/25 04:20:12;;;;;;;2.70;0.70;;;3.80;81.90;;;;;;4988955;28;20043;-68
2022/02/25 04:22:39;;;;;;;2.65;1.60;;;3.80;82.00;;;;;;4982850;28;20046;-67
2022/02/25 04:25:07;;;;;;;4.22;0.70;;;3.80;81.90;;;;;;4964703;28;20069;-68
2022/02/25 04:27:37;;;;;;;2.35;1.10;;;3.80;81.90;;;;;;4987257;28;20489;-68
2022/02/25 04:30:06;;;;;;;2.65;0.90;;;3.70;82.00;;;;;;4989085;28;20046;-69
2022/02/25 04:32:34;;;;;;;0.93;0.60;;;3.70;82.00;;;;;;4989228;28;20127;-68
2022/02/25 04:35:02;;;;;;;1.67;0.80;;;3.70;82.00;;;;;;4970506;28;20055;-68
2022/02/25 04:37:32;;;;;;;1.85;0.52;;;3.70;81.90;;;;;;4969763;28;20054;-68
2022/02/25 04:39:59;;;;;;;1.80;0.70;;;3.70;82.00;;;;;;4969338;28;20050;-67
2022/02/25 04:42:29;;;;;;;4.30;0.70;;;3.70;81.80;;;;;;4969793;28;20866;-68
2022/02/25 04:44:59;;;;;;;1.85;1.35;;;3.70;81.80;;;;;;4969434;28;20057;-67
2022/02/25 04:47:27;;;;;;;4.85;0.65;;;3.70;81.50;;;;;;4968442;28;20136;-69
2022/02/25 04:49:54;;;;;;;3.13;1.10;;;3.70;81.50;;;;;;4968406;28;20054;-67
2022/02/25 04:52:21;;;;;;;4.07;0.70;;;3.70;81.30;;;;;;4966580;28;20054;-68
2022/02/25 04:54:49;;;;;;;0.75;0.40;;;3.70;81.20;;;;;;4966328;28;20526;-67
2022/02/25 04:57:16;;;;;;;1.67;0.43;;;3.70;81.10;;;;;;4966692;28;20046;-67
2022/02/25 04:59:44;;;;;;;0.20;0.20;;;3.70;81.10;;;;;;4969590;28;20592;-68
2022/02/25 05:02:12;;;;;;;5.35;0.52;;;3.70;81.10;;;;;;4962153;28;20046;-66
2022/02/25 05:04:42;;;;;;;3.13;0.60;;;3.60;80.90;;;;;;4964235;28;21074;-68
2022/02/25 05:07:09;;;;;;;2.22;0.47;;;3.60;81.00;;;;;;4966333;28;20122;-67
2022/02/25 05:09:37;;;;;;;3.13;0.77;;;3.60;81.00;;;;;;4968760;28;20054;-68
2022/02/25 05:12:06;;;;;;;0.60;0.30;;;3.60;81.00;;;;;;4968162;28;20039;-65
2022/02/25 05:20:23;;;;;;;1.70;0.35;;;3.50;80.80;;;;;;4968925;28;20078;-69
2022/02/25 05:22:52;;;;;;;5.25;1.27;;;3.50;80.80;;;;;;4969264;28;20046;-66
2022/02/25 05:25:21;;;;;;;0.95;0.22;;;3.50;80.90;;;;;;4968683;28;20050;-66
2022/02/25 05:27:50;;;;;;;1.45;0.45;;;3.50;80.90;;;;;;4968496;28;20061;-67
2022/02/25 05:30:19;;;;;;;5.10;0.57;;;3.50;80.80;;;;;;4976742;28;20047;-67
2022/02/25 05:32:50;;;;;;;0.95;0.40;;;3.50;80.90;;;;;;4977857;28;20044;-68
2022/02/25 05:35:19;;;;;;;0.40;0.20;;;3.50;80.80;;;;;;4981613;28;20059;-67
2022/02/25 05:37:47;;;;;;;1.65;0.50;;;3.50;80.70;;;;;;4993459;28;20040;-67
2022/02/25 05:40:16;;;;;;;4.57;1.08;;;3.50;80.80;;;;;;4992481;28;20125;-66
2022/02/25 05:42:52;;;;;;;1.55;0.35;;;3.50;80.80;;;;;;4991502;28;20053;-67
2022/02/25 05:45:19;;;;;;;2.58;0.40;;;3.40;80.90;;;;;;4991352;28;20396;-66
2022/02/25 05:47:49;;;;;;;3.85;0.57;;;3.50;80.90;;;;;;4991686;28;20559;-66
2022/02/25 05:50:18;;;;;;;0.88;0.22;;;3.50;80.90;;;;;;4990525;28;20124;-66
2022/02/25 05:52:56;;;;;;;0.25;0.13;;;3.50;80.90;;;;;;4988948;28;20526;-66
2022/02/25 05:55:24;;;;;;;2.50;1.42;;;3.50;80.80;;;;;;4995408;28;20159;-67
2022/02/25 05:57:54;;;;;;;2.92;0.55;;;3.40;80.90;;;;;;4991310;28;20045;-66
2022/02/25 06:00:31;;;;;;;0.55;0.40;;;3.40;80.90;;;;;;4990358;28;20065;-66
2022/02/25 06:03:00;;;;;;;0.57;0.43;;;3.40;80.90;;;;;;4992035;28;20217;-67
2022/02/25 06:05:42;;;;;;;2.28;0.45;;;3.40;80.90;;;;;;4990285;28;20404;-67
2022/02/25 06:08:10;;;;;;;0.77;0.30;;;3.40;80.90;;;;;;4991616;28;20139;-68
2022/02/25 06:10:37;;;;;;;1.20;0.55;;;3.40;80.80;;;;;;4990985;28;20054;-66
2022/02/25 06:13:08;;;;;;;1.23;0.70;;;3.40;80.70;;;;;;4991874;28;20674;-65
2022/02/25 06:15:46;;;;;;;0.38;0.20;;;3.40;80.90;;;;;;4992511;28;20116;-67
2022/02/25 06:18:17;;;;;;;5.18;0.93;;;3.40;80.90;;;;;;4978495;28;20053;-66
2022/02/25 06:20:45;;;;;;;1.17;0.38;;;3.40;81.00;;;;;;4991904;28;20045;-66
2022/02/25 06:23:13;;;;;;;0.85;0.50;;;3.30;81.00;;;;;;4992675;28;20049;-66
2022/02/25 06:25:40;;;;;;;3.33;1.05;;;3.40;81.00;;;;;;4995951;28;20053;-66
2022/02/25 06:28:09;;;;;;;4.88;0.85;;;3.30;81.10;;;;;;4992394;28;20054;-67
2022/02/25 06:30:37;;;;;;;3.63;0.55;;;3.40;81.00;;;;;;4995187;28;20034;-67
2022/02/25 06:33:04;;;;;;;3.65;0.60;;;3.40;81.00;;;;;;4993172;28;20046;-67
2022/02/25 06:35:32;;;;;;;2.38;0.52;;;3.40;80.80;;;;;;4994971;28;20057;-66
2022/02/25 06:37:59;;;;;;;0.75;0.40;;;3.40;80.90;;;;;;4997758;28;20054;-67
2022/02/25 06:40:26;;;;;;;6.90;0.88;;;3.40;80.90;;;;;;5003397;28;20042;-66
2022/02/25 06:42:54;;;;;;;2.15;1.02;;;3.40;80.90;;;;;;4986540;28;20419;-66
2022/02/25 06:45:23;;;;;;;0.88;0.30;;;3.30;81.00;;;;;;5003707;28;20049;-66
2022/02/25 06:47:51;;;;;;;2.67;0.80;;;3.40;81.00;;;;;;4999655;28;20061;-65
2022/02/25 06:50:19;;;;;;;2.15;0.95;;;3.30;81.10;;;;;;5001396;28;20473;-68
2022/02/25 06:52:47;;;;;;;1.15;0.60;;;3.30;81.10;;;;;;4984485;28;20100;-67
2022/02/25 06:55:17;;;;;;;2.47;0.85;;;3.40;81.10;;;;;;4997354;28;20042;-68
2022/02/25 06:57:47;;;;;;;0.43;0.30;;;3.40;81.00;;;;;;4994526;28;20038;-66
2022/02/25 07:00:21;;;;;;;5.13;0.60;;;3.40;81.00;;;;;;4994245;28;20053;-68
2022/02/25 07:02:51;;;;;;;1.33;0.47;;;3.40;81.00;;;;;;5000075;28;20046;-65
2022/02/25 07:05:19;;;;;;;3.80;0.82;;;3.40;81.10;;;;;;4978468;28;20046;-67
2022/02/25 07:07:48;;;;;;;4.20;0.90;;;3.40;81.10;;;;;;5003445;28;20115;-68
2022/02/25 07:10:15;;;;;;;1.13;0.20;;;3.40;81.10;;;;;;5002329;28;20046;-67
2022/02/25 07:12:43;;;;;;;3.88;0.50;;;3.40;81.10;;;;;;5000295;28;20085;-69
2022/02/25 07:15:14;;;;;;;1.75;0.65;;;3.50;81.20;;;;;;5000360;28;20046;-67
2022/02/25 07:17:42;;;;;;;1.48;0.55;;;3.40;81.30;;;;;;4998854;28;20038;-70
2022/02/25 07:20:13;;;;;;;0.93;0.30;;;3.50;81.40;;;;;;4998332;28;20630;-66
2022/02/25 07:22:41;;;;;;;2.83;0.90;;;3.40;81.30;;;;;;4995793;28;20046;-68
2022/02/25 07:25:10;;;;;;;1.17;0.60;;;3.40;81.30;;;;;;4996308;28;20066;-67
2022/02/25 07:27:37;;;;;;;3.15;0.50;;;3.50;81.40;;;;;;4995235;28;20034;-68
2022/02/25 07:30:06;;;;;;;5.07;1.30;;;3.50;81.50;;;;;;4993743;28;20795;-67
2022/02/25 07:32:34;;;;;;;3.85;1.05;;;3.50;81.50;;;;;;4997354;28;20060;-66
2022/02/25 07:35:06;;;;;;;1.80;1.05;;;3.60;81.50;;;;;;4998430;28;20128;-68
2022/02/25 07:37:36;;;;;;;3.72;1.02;;;3.60;81.50;;;;;;5003979;28;20081;-67
2022/02/25 07:40:07;;;;;;;3.00;0.83;;;3.60;81.40;;;;;;5003418;28;20045;-68
2022/02/25 07:42:35;;;;;;;4.82;1.00;;;3.60;81.60;;;;;;5004145;28;20494;-67
2022/02/25 07:45:03;;;;;;;5.57;1.75;;;3.60;81.60;;;;;;5003328;28;20045;-66
2022/02/25 07:47:30;;;;;;;5.05;1.10;;;3.70;81.60;;;;;;5004587;28;20555;-68
2022/02/25 07:49:58;;;;;;;2.28;0.77;;;3.70;81.70;;;;;;5001223;28;20052;-66
2022/02/25 07:52:25;;;;;;;5.18;1.05;;;3.70;81.60;;;;;;5001834;28;20038;-67
2022/02/25 07:54:55;;;;;;;5.05;1.45;;;3.70;81.60;;;;;;5002071;28;20064;-69
2022/02/25 07:57:23;;;;;;;4.82;1.58;;;3.80;81.50;;;;;;5004349;28;20100;-67
2022/02/25 07:59:51;;;;;;;2.50;0.80;;;3.80;81.50;;;;;;5003236;28;20050;-67
2022/02/25 08:02:19;;;;;;;5.00;1.23;;;3.80;81.60;;;;;;4997602;28;20046;-68
2022/02/25 08:04:51;;;;;;;3.17;1.25;;;3.90;81.40;;;;;;4997252;28;20046;-67
2022/02/25 08:07:18;;;;;;;2.65;0.70;;;3.90;81.20;;;;;;5003942;28;20120;-67
2022/02/25 08:09:49;;;;;;;2.85;0.80;;;3.90;81.20;;;;;;5004769;28;20125;-68
2022/02/25 08:12:18;;;;;;;2.03;0.70;;;4.00;81.20;;;;;;5004977;28;20052;-68
2022/02/25 08:14:45;;;;;;;3.83;1.02;;;4.00;81.10;;;;;;5002243;28;20050;-67
2022/02/25 08:17:13;;;;;;;3.47;1.05;;;4.10;81.00;;;;;;4985403;28;20050;-67
2022/02/25 08:19:40;;;;;;;2.15;0.60;;;4.10;81.00;;;;;;4993839;28;21621;-66
2022/02/25 08:22:08;;;;;;;5.75;0.55;;;4.10;81.00;;;;;;4996775;28;20160;-67
2022/02/25 08:24:36;;;;;;;4.80;0.65;;;4.20;80.90;;;;;;4996922;28;20123;-67
2022/02/25 08:27:04;;;;;;;2.33;0.60;;;4.20;80.80;;;;;;5003645;28;20045;-66
2022/02/25 08:29:33;;;;;;;5.25;1.60;;;4.30;80.80;;;;;;5000006;28;20042;-66
2022/02/25 08:32:00;;;;;;;3.63;2.05;;;4.30;80.70;;;;;;5002611;28;20057;-67
2022/02/25 08:34:29;;;;;;;1.63;0.65;;;4.40;80.60;;;;;;4999700;28;20096;-67
2022/02/25 08:36:56;;;;;;;5.25;1.05;;;4.40;80.50;;;;;;5001937;28;20061;-66
2022/02/25 08:39:24;;;;;;;3.60;1.77;;;4.50;80.60;;;;;;4998097;28;20053;-66
2022/02/25 08:41:52;;;;;;;2.85;1.00;;;4.60;80.70;;;;;;5002315;28;20085;-67
2022/02/25 08:44:19;;;;;;;5.05;2.53;;;4.60;80.80;;;;;;4994916;28;20076;-67
2022/02/25 08:46:48;;;;;;;2.17;0.60;;;4.70;80.70;;;;;;4997165;28;20411;-66
2022/02/25 08:49:16;;;;;;;1.35;0.65;;;4.70;80.70;;;;;;4996115;28;20064;-66
2022/02/25 08:51:50;;;;;;;5.15;0.60;;;4.90;80.60;;;;;;4995267;28;20084;-67
2022/02/25 08:54:18;;;;;;;5.38;0.98;;;4.90;80.30;;;;;;4995509;28;20793;-66
2022/02/25 08:56:45;;;;;;;2.92;0.77;;;4.90;80.30;;;;;;4999345;28;20051;-65
2022/02/25 08:59:13;;;;;;;3.25;1.50;;;5.00;80.20;;;;;;4995596;28;20049;-66
2022/02/25 09:01:43;;;;;;;4.68;0.50;;;5.10;80.10;;;;;;4996885;28;20049;-77
2022/02/25 09:04:11;;;;;;;5.43;0.80;;;5.20;80.00;;;;;;4998044;28;20503;-77
2022/02/25 09:06:40;;;;;;;2.30;0.88;;;5.30;79.70;;;;;;5004107;28;20062;-77
2022/02/25 09:09:07;;;;;;;1.48;0.77;;;5.40;79.20;;;;;;5003858;28;20034;-78
2022/02/25 09:11:36;;;;;;;2.85;0.63;;;5.40;79.30;;;;;;5004852;28;20046;-76
2022/02/25 09:14:03;;;;;;;4.10;0.85;;;5.50;78.90;;;;;;5008082;28;20146;-78
2022/02/25 09:16:31;;;;;;;4.72;1.13;;;5.60;78.70;;;;;;5006225;28;20053;-76
2022/02/25 09:18:58;;;;;;;3.00;1.05;;;5.70;78.30;;;;;;5004813;28;20057;-76
2022/02/25 09:21:28;;;;;;;3.45;1.17;;;5.70;78.40;;;;;;5006258;28;20443;-77
2022/02/25 09:23:55;;;;;;;20.17;1.95;;;5.70;78.10;;;;;;5004242;28;20124;-78
2022/02/25 09:26:23;;;;;;;2.53;1.00;;;5.80;78.00;;;;;;5005051;28;20056;-77
2022/02/25 09:28:50;;;;;;;3.42;1.20;;;5.90;78.00;;;;;;5007676;28;20395;-80
2022/02/25 09:31:17;;;;;;;1.95;0.60;;;6.00;77.80;;;;;;5001084;28;20053;-79
2022/02/25 09:33:45;;;;;;;2.42;0.75;;;6.10;77.40;;;;;;5006266;28;21205;-77
2022/02/25 09:36:12;;;;;;;2.75;1.17;;;6.10;77.10;;;;;;5006706;28;20089;-76
2022/02/25 09:38:42;;;;;;;7.72;1.00;;;6.20;76.90;;;;;;5006657;28;20069;-77
2022/02/25 09:41:10;;;;;;;1.40;0.60;;;6.10;76.70;;;;;;5011068;28;20056;-76
2022/02/25 09:43:38;;;;;;;3.75;0.85;;;6.20;76.30;;;;;;5016084;28;20042;-77
2022/02/25 09:46:07;;;;;;;5.10;1.70;;;6.20;76.20;;;;;;5012209;28;20101;-77
2022/02/25 09:48:38;;;;;;;4.15;0.93;;;6.20;76.00;;;;;;5013252;28;20097;-77
2022/02/25 09:51:06;;;;;;;1.92;0.47;;;6.10;76.20;;;;;;5010720;28;20323;-77
2022/02/25 09:53:34;;;;;;;1.52;0.43;;;6.20;75.90;;;;;;5010490;28;20054;-79
2022/02/25 09:56:04;;;;;;;4.25;0.82;;;6.30;75.80;;;;;;5010342;28;20061;-77
2022/02/25 09:58:32;;;;;;;5.72;0.80;;;6.40;75.70;;;;;;5013837;28;20649;-76
2022/02/25 10:00:59;;;;;;;3.47;0.80;;;6.40;75.40;;;;;;5005775;28;20053;-79
2022/02/25 10:03:33;;;;;;;4.10;1.27;;;6.40;75.60;;;;;;5009906;28;20050;-80
2022/02/25 10:06:05;;;;;;;4.10;1.00;;;6.50;75.10;;;;;;5009707;28;20046;-77
2022/02/25 10:08:33;;;;;;;1.80;0.50;;;6.50;74.80;;;;;;5008123;28;20042;-77
2022/02/25 10:11:02;;;;;;;8.25;0.82;;;6.50;74.50;;;;;;5007566;28;20050;-78
2022/02/25 10:13:34;;;;;;;2.55;0.60;;;6.50;74.50;;;;;;5009126;28;20081;-77
2022/02/25 10:16:04;;;;;;;3.08;0.70;;;6.50;74.40;;;;;;5011392;28;20129;-78
2022/02/25 10:18:34;;;;;;;1.93;0.50;;;6.40;74.40;;;;;;4995337;28;20081;-76
2022/02/25 10:21:03;;;;;;;4.63;0.57;;;6.50;74.20;;;;;;5013733;28;20057;-78
2022/02/25 10:23:33;;;;;;;3.42;0.57;;;6.50;74.10;;;;;;5011893;28;20045;-76
2022/02/25 10:26:14;;;;;;;2.63;1.00;;;6.60;73.80;;;;;;4987798;28;20045;-76
2022/02/25 10:28:46;;;;;;;3.38;0.80;;;6.70;73.90;;;;;;5002124;28;20050;-77
2022/02/25 10:31:29;;;;;;;2.55;0.60;;;6.70;73.90;;;;;;5005042;28;20118;-80
2022/02/25 10:34:01;;;;;;;4.60;1.83;;;6.90;73.60;;;;;;4990779;28;20467;-79
2022/02/25 10:36:44;;;;;;;1.70;0.55;;;6.90;72.90;;;;;;5005575;28;20065;-77
2022/02/25 10:39:14;;;;;;;2.50;1.00;;;7.00;72.90;;;;;;5003059;28;20279;-78
2022/02/25 10:41:44;;;;;;;3.78;0.57;;;7.00;72.90;;;;;;5006035;28;20069;-75
2022/02/25 10:44:38;;;;;;;3.55;0.75;;;7.00;73.00;;;;;;4999143;28;20338;-80
2022/02/25 10:47:16;;;;;;;1.50;0.47;;;7.00;72.20;;;;;;5003739;28;20042;-78
2022/02/25 10:49:49;;;;;;;4.25;0.98;;;7.00;71.60;;;;;;5004971;28;20483;-75
2022/02/25 10:52:24;;;;;;;2.50;0.80;;;7.00;71.70;;;;;;5012398;28;20038;-78
2022/02/25 10:54:52;;;;;;;4.82;0.55;;;7.00;71.70;;;;;;5011552;28;20042;-77
2022/02/25 10:57:20;;;;;;;6.30;0.70;;;6.90;71.40;;;;;;4999397;28;20053;-77
2022/02/25 10:59:58;;;;;;;3.50;0.70;;;7.00;71.10;;;;;;5008503;28;20134;-78
2022/02/25 11:02:37;;;;;;;3.42;1.02;;;7.00;71.00;;;;;;5005658;28;20046;-74
2022/02/25 11:05:08;;;;;;;4.40;1.30;;;6.90;71.10;;;;;;5007229;28;20054;-78
2022/02/25 11:07:36;;;;;;;4.38;1.20;;;7.00;71.40;;;;;;5005364;28;20125;-77
2022/02/25 11:10:05;;;;;;;3.42;0.63;;;7.00;71.40;;;;;;5002921;28;20050;-79
2022/02/25 11:12:35;;;;;;;2.50;0.57;;;7.00;71.70;;;;;;5003253;28;20054;-78
2022/02/25 11:15:06;;;;;;;3.15;0.80;;;7.10;71.90;;;;;;5004714;28;20092;-77
2022/02/25 11:17:36;;;;;;;3.88;1.20;;;7.10;71.40;;;;;;5006848;28;20050;-78
2022/02/25 11:20:08;;;;;;;7.95;1.42;;;7.10;71.70;;;;;;5009085;28;20060;-81
2022/02/25 11:22:40;;;;;;;3.45;1.02;;;7.10;71.40;;;;;;5011764;28;20037;-77
2022/02/25 11:25:12;;;;;;;7.35;1.15;;;7.10;71.30;;;;;;5010007;28;20101;-79
2022/02/25 11:27:41;;;;;;;2.65;1.20;;;7.00;71.50;;;;;;5009390;28;20100;-79
2022/02/25 11:30:13;;;;;;;3.08;0.70;;;7.00;71.40;;;;;;5006490;28;20056;-79
2022/02/25 11:32:48;;;;;;;5.63;1.35;;;7.00;71.30;;;;;;5010002;28;20048;-77
2022/02/25 11:35:19;;;;;;;3.50;0.85;;;7.00;71.50;;;;;;5003987;28;20061;-78
2022/02/25 11:37:49;;;;;;;7.10;1.00;;;6.90;71.80;;;;;;5008207;28;20046;-77
2022/02/25 11:40:38;;;;;;;3.10;1.05;;;6.80;72.00;;;;;;5013222;28;20041;-76
2022/02/25 11:43:10;;;;;;;2.75;0.70;;;6.70;72.60;;;;;;5015329;28;20057;-77
2022/02/25 11:45:52;;;;;;;2.67;0.73;;;6.70;73.40;;;;;;5012861;28;20172;-77
2022/02/25 11:48:23;;;;;;;3.53;1.05;;;6.70;74.10;;;;;;5021968;28;20061;-80
2022/02/25 11:50:54;;;;;;;5.35;1.13;;;6.60;74.60;;;;;;5019471;28;20038;-77
2022/02/25 11:53:32;;;;;;;3.08;0.65;;;6.50;75.00;;;;;;5016579;28;20046;-79
2022/02/25 11:56:20;;;;;;;5.30;1.00;;;6.60;75.20;;;;;;5009131;28;20085;-79
2022/02/25 11:58:48;;;;;;;4.43;1.38;;;6.60;75.60;;;;;;5009085;28;20029;-77
2022/02/25 12:01:20;;;;;;;3.08;0.80;;;6.50;75.80;;;;;;5007371;28;20034;-80
2022/02/25 12:04:13;;;;;;;6.05;1.20;;;6.50;76.10;;;;;;5016707;28;20042;-79
2022/02/25 12:07:03;;;;;;;1.63;0.60;;;6.50;76.30;;;;;;5014106;28;20057;-77
2022/02/25 12:09:44;;;;;;;5.55;0.90;;;6.40;76.90;;;;;;5017360;28;20033;-77
2022/02/25 12:12:37;;;;;;;7.65;1.10;;;6.40;77.20;;;;;;5018343;28;20077;-74
2022/02/25 12:15:21;;;;;;;5.05;0.95;;;6.40;77.50;;;;;;5005254;28;20046;-75
2022/02/25 12:17:57;;;;;;;5.25;1.20;;;6.40;77.90;;;;;;5014213;28;20045;-79
2022/02/25 12:20:26;;;;;;;2.88;1.00;;;6.30;78.00;;;;;;5006720;28;20459;-78
2022/02/25 12:22:56;;;;;;;3.35;1.05;;;6.30;78.30;;;;;;5006556;28;20096;-80
2022/02/25 12:25:43;;;;;;;2.63;0.90;;;6.30;78.60;;;;;;4988678;28;20054;-75
2022/02/25 12:28:33;;;;;;;4.05;1.50;;;6.20;78.90;;;;;;5004970;28;20065;-80
2022/02/25 12:31:03;;;;;;;2.65;0.95;;;6.20;79.00;;;;;;5001444;28;20049;-76
2022/02/25 12:33:34;;;;;;;4.60;1.37;;;6.20;79.00;;;;;;5002037;28;20042;-77
2022/02/25 12:36:06;;;;;;;5.35;0.77;;;6.30;79.20;;;;;;5000447;28;20060;-77
2022/02/25 12:38:38;;;;;;;3.33;0.95;;;6.30;79.40;;;;;;4999462;28;20061;-75
2022/02/25 12:41:13;;;;;;;3.90;1.15;;;6.30;79.50;;;;;;5004419;28;20039;-75
2022/02/25 12:43:58;;;;;;;4.13;1.00;;;6.20;79.60;;;;;;4997720;28;20077;-78
2022/02/25 12:46:30;;;;;;;5.32;0.90;;;6.20;79.70;;;;;;5000664;28;20078;-80
2022/02/25 12:49:04;;;;;;;4.25;0.95;;;6.30;79.50;;;;;;5002251;28;20050;-79
2022/02/25 12:51:31;;;;;;;3.08;1.05;;;6.40;79.50;;;;;;5003980;28;20052;-82
2022/02/25 12:54:00;;;;;;;4.28;1.02;;;6.40;79.50;;;;;;4999499;28;20049;-78
2022/02/25 12:56:32;;;;;;;3.72;1.17;;;6.40;79.30;;;;;;5006288;28;20042;-78
2022/02/25 12:59:02;;;;;;;5.07;0.70;;;6.50;79.20;;;;;;5005248;28;20046;-78
2022/02/25 13:01:31;;;;;;;2.20;0.82;;;6.60;79.20;;;;;;5001071;28;20058;-80
2022/02/25 13:04:16;;;;;;;4.78;1.20;;;6.60;79.40;;;;;;5005657;28;20105;-78
2022/02/25 13:06:47;;;;;;;2.53;0.85;;;6.70;79.30;;;;;;5006393;28;20049;-82
2022/02/25 13:09:16;;;;;;;8.80;1.40;;;6.80;79.20;;;;;;4997218;28;20054;-78
2022/02/25 13:11:48;;;;;;;5.97;1.10;;;6.90;79.20;;;;;;4998107;28;20056;-78
2022/02/25 13:14:24;;;;;;;2.22;0.93;;;7.00;79.00;;;;;;5007068;28;20038;-79
2022/02/25 13:17:17;;;;;;;3.08;0.98;;;7.10;78.70;;;;;;5006593;28;20144;-80
2022/02/25 13:20:02;;;;;;;6.10;0.98;;;7.10;78.60;;;;;;5005071;28;20050;-77
2022/02/25 13:22:31;;;;;;;5.32;1.20;;;7.20;78.40;;;;;;5008080;28;20126;-79